Latest Weather Observations for Devonport Airport

IDT60801

Issued at 4:31 am EDT Monday 8 February 2016 (issued every 30 minutes, with the page automatically refreshed every 10 minutes)

About weather observations | Map of weather stations | Latest weather observations for TAS | Other Formats
Station Details ID: 091126 Name: DEVONPORT AIRPORT Lat: -41.17 Lon: 146.43 Height: 8.0 m
Data from the previous 72 hours. | See also: Recent months at Devonport Airport
Date/Time
EDT
Temp
°C
App
Temp
°C
Dew
Point
Rel
Hum
%
Delta-T
°C
Wind Press
QNH
hPa
Press
MSL
hPa
Rain
since 9 am
mm
Dir
 
Spd
km/h
Gust
km/h
Spd
kts
Gust
kts
08/04:30am 16.6 16.3 15.5 93 0.6 S 11 13 6 7 1017.6 1017.6 0.0
08/04:09am 17.1 17.3 15.8 92 0.8 S 9 11 5 6 1017.7 1017.7 0.0
08/04:02am 17.3 18.2 16.0 92 0.8 S 6 11 3 6 1017.7 1017.7 0.0
08/04:00am 17.4 18.2 15.9 91 0.9 S 6 11 3 6 1017.7 1017.7 0.0
08/03:30am 17.7 18.6 16.0 90 1.0 SW 6 9 3 5 1017.7 1017.7 0.0
08/03:00am 19.2 21.6 17.0 87 1.3 CALM 0 0 0 0 1017.8 1017.8 0.0
08/02:30am 19.5 20.7 17.3 87 1.3 WSW 7 9 4 5 1018.0 1017.9 0.0
08/02:00am 20.0 20.3 17.8 87 1.4 WNW 13 17 7 9 1018.3 1018.2 0.0
08/01:30am 19.8 19.7 17.8 88 1.2 NW 15 19 8 10 1018.2 1018.1 0.0
08/01:00am 19.8 20.1 17.8 88 1.2 NW 13 17 7 9 1018.1 1018.0 0.0
08/12:30am 19.6 19.4 17.7 89 1.2 NNW 15 17 8 9 1018.1 1018.0 0.0
08/12:00am 19.7 19.2 17.7 88 1.2 NNW 17 20 9 11 1018.2 1018.1 0.0
 
Date/Time
EDT
Temp
°C
App
Temp
°C
Dew
Point
Rel
Hum
%
Delta-T
°C
Wind Press
QNH
hPa
Press
MSL
hPa
Rain
since 9 am
mm
Dir
 
Spd
km/h
Gust
km/h
Spd
kts
Gust
kts
07/11:41pm 19.8 19.2 17.6 87 1.3 NW 17 20 9 11 1018.4 1018.3 0.0
07/11:30pm 19.8 19.5 17.4 86 1.5 NW 15 19 8 10 1018.5 1018.4 0.0
07/11:00pm 20.1 19.8 17.3 84 1.7 NW 15 19 8 10 1018.5 1018.4 0.0
07/10:30pm 19.9 19.0 16.9 83 1.8 NW 17 19 9 10 1018.5 1018.4 0.0
07/10:00pm 19.7 19.0 16.5 82 1.9 NW 15 19 8 10 1018.4 1018.3 0.0
07/09:30pm 19.8 19.4 16.3 80 2.1 NW 13 17 7 9 1018.2 1018.1 0.0
07/09:00pm 19.9 19.1 16.2 79 2.2 NW 15 20 8 11 1017.7 1017.7 0.0
07/08:30pm 20.1 19.4 16.3 79 2.3 NW 15 20 8 11 1017.4 1017.4 0.0
07/08:00pm 20.4 19.2 16.2 77 2.5 NW 17 19 9 10 1017.4 1017.4 0.0
07/07:30pm 20.7 19.5 16.1 75 2.8 NW 17 20 9 11 1017.1 1017.1 0.0
07/07:00pm 21.4 20.0 16.6 74 2.9 NNW 19 22 10 12 1016.9 1016.9 0.0
07/06:30pm 21.5 19.8 15.8 70 3.4 NNW 19 22 10 12 1016.7 1016.7 0.0
07/06:00pm 22.1 20.6 16.4 70 3.5 NNW 19 22 10 12 1016.8 1016.8 0.0
07/05:30pm 22.3 20.8 16.8 71 3.4 N 20 24 11 13 1016.8 1016.8 0.0
07/05:00pm 21.9 20.3 16.4 71 3.3 N 20 24 11 13 1017.0 1017.0 0.0
07/04:30pm 22.1 20.3 16.1 69 3.6 N 20 26 11 14 1017.2 1017.2 0.0
07/04:00pm 22.0 19.9 16.1 69 3.6 N 22 28 12 15 1017.1 1017.1 0.0
07/03:30pm 22.4 20.7 17.1 72 3.3 N 22 28 12 15 1017.4 1017.4 0.0
07/03:00pm 22.1 20.2 15.7 67 3.8 N 20 24 11 13 1017.6 1017.6 0.0
07/02:30pm 22.4 20.4 16.4 69 3.6 N 22 26 12 14 1017.7 1017.7 0.0
07/02:00pm 22.1 19.8 15.7 67 3.8 N 22 26 12 14 1017.7 1017.7 0.0
07/01:30pm 22.1 19.6 16.1 69 3.6 N 24 28 13 15 1017.7 1017.7 0.0
07/01:00pm 22.4 20.1 15.7 66 4.0 NNE 22 28 12 15 1018.0 1017.9 0.0
07/12:30pm 22.1 20.5 16.4 70 3.5 NNE 20 24 11 13 1018.3 1018.2 0.0
07/12:00pm 21.3 19.2 14.7 66 3.9 NNE 19 22 10 12 1018.6 1018.5 0.0
07/11:30am 22.6 21.0 16.4 68 3.8 NNE 20 24 11 13 1018.6 1018.5 0.0
07/11:00am 21.9 20.3 16.4 71 3.3 NE 20 24 11 13 1018.5 1018.4 0.0
07/10:30am 21.1 19.3 15.6 71 3.3 NE 19 20 10 11 1018.7 1018.6 0.0
07/10:00am 21.2 20.5 16.4 74 2.9 NNE 15 19 8 10 1018.8 1018.7 0.0
07/09:30am 20.9 20.8 15.9 73 3.0 ENE 11 17 6 9 1018.8 1018.7 0.0
07/09:00am 20.6 20.2 16.2 76 2.6 E 13 15 7 8 1018.9 1018.8 0.0
07/08:30am 20.0 20.1 16.4 80 2.2 ESE 11 13 6 7 1018.8 1018.7 0.0
07/08:00am 19.6 19.9 16.1 80 2.1 ESE 9 11 5 6 1018.7 1018.6 0.0
07/07:30am 19.3 19.2 16.0 81 2.0 ESE 11 13 6 7 1018.3 1018.2 0.0
07/07:00am 18.9 19.3 16.3 85 1.6 ESE 9 13 5 7 1018.2 1018.1 0.0
07/06:30am 18.8 19.2 16.4 86 1.4 ESE 9 11 5 6 1017.7 1017.7 0.0
07/06:00am 18.9 19.7 16.3 85 1.6 E 7 9 4 5 1017.6 1017.6 0.0
07/05:30am 18.9 19.2 16.1 84 1.7 E 9 11 5 6 1017.4 1017.4 0.0
07/05:00am 19.3 19.3 16.2 82 1.8 NE 11 17 6 9 1017.3 1017.3 0.0
07/04:30am 18.8 18.8 16.2 85 1.6 ENE 11 15 6 8 1017.4 1017.4 0.0
07/04:00am 18.8 20.6 16.4 86 1.4 SSE 2 7 1 4 1017.7 1017.7 0.0
07/03:30am 19.3 19.3 16.3 83 1.8 NE 11 15 6 8 1017.8 1017.8 0.0
07/03:00am 19.4 19.2 16.6 84 1.7 NNE 13 15 7 8 1018.1 1018.0 0.0
07/02:50am 19.5 19.3 16.7 84 1.7 NNE 13 15 7 8 1018.1 1018.0 0.0
07/02:30am 19.5 19.4 16.9 85 1.6 NNE 13 15 7 8 1018.2 1018.1 0.0
07/02:00am 19.0 20.1 17.0 88 1.2 ENE 7 11 4 6 1018.1 1018.0 0.0
07/01:52am 19.0 19.3 17.0 88 1.2 ENE 11 15 6 8 1018.1 1018.0 0.0
07/01:30am 18.7 19.3 16.9 89 1.1 ESE 9 11 5 6 1018.4 1018.3 0.0
07/01:00am 18.0 18.0 16.3 90 1.0 SSE 11 13 6 7 1018.7 1018.6 0.0
07/12:30am 17.6 17.1 15.9 90 1.0 SSE 13 15 7 8 1018.8 1018.7 0.0
07/12:00am 17.4 17.2 15.7 90 1.0 SSE 11 11 6 6 1018.9 1018.8 0.0
 
Date/Time
EDT
Temp
°C
App
Temp
°C
Dew
Point
Rel
Hum
%
Delta-T
°C
Wind Press
QNH
hPa
Press
MSL
hPa
Rain
since 9 am
mm
Dir
 
Spd
km/h
Gust
km/h
Spd
kts
Gust
kts
06/11:30pm 17.0 16.6 15.3 90 1.0 SSE 11 13 6 7 1018.9 1018.8 0.0
06/11:00pm 17.4 17.9 15.6 89 1.1 SE 7 9 4 5 1019.0 1018.9 0.0
06/10:30pm 18.3 18.6 16.1 87 1.3 E 9 9 5 5 1019.2 1019.1 0.0
06/10:00pm 18.0 18.6 15.8 87 1.3 SE 7 7 4 4 1019.3 1019.2 0.0
06/09:30pm 18.4 19.2 15.8 85 1.5 E 6 7 3 4 1019.0 1018.9 0.0
06/09:00pm 19.1 19.3 15.8 81 2.0 NE 9 13 5 7 1018.8 1018.7 0.0
06/08:30pm 19.8 20.0 14.8 73 2.9 NNE 7 9 4 5 1018.6 1018.5 0.0
06/08:00pm 20.6 20.0 14.7 69 3.4 NNE 11 15 6 8 1018.4 1018.3 0.0
06/07:30pm 21.1 20.0 14.3 65 4.0 NNE 13 15 7 8 1018.3 1018.2 0.0
06/07:00pm 21.3 20.3 14.7 66 3.9 NNE 13 15 7 8 1018.2 1018.1 0.0
06/06:30pm 21.7 20.1 15.1 66 3.9 NNE 17 20 9 11 1018.2 1018.1 0.0
06/06:00pm 22.0 20.2 15.6 67 3.8 NNE 19 24 10 13 1018.4 1018.3 0.0
06/05:30pm 21.5 19.4 15.1 67 3.8 NNE 20 24 11 13 1018.4 1018.3 0.0
06/05:00pm 22.0 20.1 15.8 68 3.7 NNE 20 24 11 13 1018.4 1018.3 0.0
06/04:30pm 21.8 19.5 14.7 64 4.2 NNE 20 26 11 14 1018.8 1018.7 0.0
06/04:00pm 22.1 19.3 14.2 61 4.6 NE 22 28 12 15 1019.1 1019.0 0.0
06/03:30pm 22.2 19.6 15.8 67 3.8 NNE 24 28 13 15 1019.2 1019.1 0.0
06/03:00pm 21.8 18.6 15.4 67 3.8 NNE 26 28 14 15 1019.5 1019.4 0.0
06/02:30pm 22.3 19.3 14.7 62 4.5 NE 24 30 13 16 1019.7 1019.6 0.0
06/02:00pm 22.4 19.5 15.0 63 4.4 NNE 24 32 13 17 1019.9 1019.8 0.0
06/01:30pm 22.0 19.4 14.9 64 4.2 NNE 22 28 12 15 1020.2 1020.1 0.0
06/01:00pm 21.8 19.4 15.4 67 3.8 NNE 22 28 12 15 1020.4 1020.3 0.0
06/12:30pm 22.2 18.9 15.1 64 4.2 NE 26 30 14 16 1020.7 1020.6 0.0
06/12:00pm 21.1 19.3 14.5 66 3.8 NE 17 20 9 11 1021.1 1021.0 0.0
06/11:30am 20.9 19.2 13.6 63 4.2 NE 15 19 8 10 1021.5 1021.4 0.0
06/11:00am 20.4 18.9 14.1 67 3.6 NE 15 20 8 11 1021.8 1021.7 0.0
06/10:30am 20.2 19.6 13.4 65 3.9 ENE 9 15 5 8 1021.8 1021.7 0.0
06/10:00am 19.9 18.8 13.1 65 3.8 ENE 11 15 6 8 1021.9 1021.8 0.0
06/09:30am 19.9 18.1 13.4 66 3.7 ENE 15 20 8 11 1021.8 1021.7 0.0
06/09:00am 20.8 18.2 13.7 64 4.1 ENE 20 28 11 15 1021.7 1021.6 0.0
06/08:30am 20.2 18.0 13.4 65 3.9 E 17 24 9 13 1021.5 1021.4 0.0
06/08:00am 19.5 18.3 13.9 70 3.2 ESE 13 19 7 10 1021.3 1021.2 0.0
06/07:30am 18.2 18.5 14.9 81 1.9 ESE 7 11 4 6 1021.2 1021.1 0.0
06/07:00am 17.5 16.6 14.8 84 1.6 E 13 15 7 8 1021.1 1021.0 0.0
06/06:30am 17.8 16.7 15.2 85 1.5 E 15 20 8 11 1020.9 1020.8 0.0
06/06:00am 17.8 16.7 15.2 85 1.5 E 15 19 8 10 1020.7 1020.6 0.0
06/05:30am 17.8 16.6 15.1 84 1.6 ENE 15 19 8 10 1020.7 1020.6 0.0
06/05:00am 18.5 18.3 15.6 83 1.7 E 11 15 6 8 1020.9 1020.8 0.0
06/04:30am 18.5 17.5 15.6 83 1.7 E 15 19 8 10 1021.0 1020.9 0.0
06/04:18am 18.7 18.2 15.8 83 1.7 E 13 17 7 9 1021.0 1020.9 0.0
06/04:00am 18.6 18.1 15.8 84 1.7 ENE 13 17 7 9 1021.2 1021.1 0.0
06/03:30am 18.6 17.5 16.4 87 1.3 NE 17 20 9 11 1021.4 1021.3 0.0
06/03:00am 18.8 18.3 16.0 84 1.7 E 13 19 7 10 1021.6 1021.5 0.0
06/02:32am 19.0 17.8 16.0 83 1.8 ENE 17 22 9 12 1021.8 1021.7 0.0
06/02:30am 19.0 17.4 16.0 83 1.8 ENE 19 22 10 12 1021.8 1021.7 0.0
06/02:00am 19.1 18.6 16.0 82 1.8 E 13 17 7 9 1022.0 1021.9 0.0
06/01:30am 19.1 19.4 16.0 82 1.8 E 9 15 5 8 1022.4 1022.3 0.0
06/01:09am 19.1 19.6 15.6 80 2.1 E 7 11 4 6 1022.6 1022.5 0.0
06/01:00am 19.0 19.1 15.5 80 2.1 E 9 11 5 6 1022.7 1022.6 0.0
06/12:55am 19.0 19.3 15.9 82 1.8 ESE 9 9 5 5 1022.7 1022.6 0.0
06/12:30am 18.7 19.0 15.9 84 1.7 ESE 9 9 5 5 1022.8 1022.7 0.0
06/12:00am 18.1 18.0 15.9 87 1.3 E 11 13 6 7 1023.0 1022.9 0.0
 
Date/Time
EDT
Temp
°C
App
Temp
°C
Dew
Point
Rel
Hum
%
Delta-T
°C
Wind Press
QNH
hPa
Press
MSL
hPa
Rain
since 9 am
mm
Dir
 
Spd
km/h
Gust
km/h
Spd
kts
Gust
kts
05/11:30pm 17.7 17.3 15.1 85 1.5 E 11 13 6 7 1023.1 1023.0 0.0
05/11:00pm 18.2 18.7 15.5 84 1.6 ENE 7 9 4 5 1023.2 1023.1 0.0
05/10:30pm 19.0 19.4 15.3 79 2.2 NNE 7 9 4 5 1023.2 1023.1 0.0
05/10:00pm 19.1 19.4 15.0 77 2.4 N 7 9 4 5 1023.2 1023.1 0.0
05/09:30pm 19.8 20.4 15.9 78 2.3 NW 7 9 4 5 1023.0 1022.9 0.0
05/09:00pm 19.7 19.9 15.8 78 2.3 NW 9 11 5 6 1022.5 1022.4 0.0
05/08:30pm 19.8 19.9 15.4 76 2.6 NW 9 11 5 6 1022.3 1022.2 0.0
05/08:00pm 20.0 19.7 15.4 75 2.7 NW 11 13 6 7 1022.0 1021.9 0.0
05/07:30pm 20.4 19.4 15.6 74 2.9 NW 15 17 8 9 1021.8 1021.7 0.0
05/07:00pm 20.6 19.4 16.0 75 2.7 NW 17 19 9 10 1021.6 1021.5 0.0
05/06:30pm 20.6 19.3 15.8 74 2.9 NW 17 19 9 10 1021.4 1021.3 0.0
05/06:00pm 21.0 19.7 15.8 72 3.1 NW 17 20 9 11 1021.6 1021.5 0.0
05/05:30pm 20.8 19.3 15.4 71 3.2 NNW 17 22 9 12 1021.6 1021.5 0.0
05/05:00pm 20.8 19.0 15.4 71 3.2 NNW 19 24 10 13 1021.8 1021.7 0.0
05/04:30pm 21.2 19.5 15.7 71 3.3 NNW 19 22 10 12 1021.9 1021.8 0.0
05/04:00pm 21.3 19.9 16.5 74 2.9 N 19 22 10 12 1022.0 1021.9 0.0
05/03:30pm 21.1 19.5 16.1 73 3.0 N 19 24 10 13 1022.3 1022.2 0.0
05/03:00pm 21.4 19.8 15.9 71 3.3 N 19 26 10 14 1022.5 1022.4 0.0
05/02:30pm 21.5 20.0 16.2 72 3.2 N 19 24 10 13 1022.8 1022.7 0.0
05/02:00pm 21.8 20.3 16.3 71 3.3 N 19 24 10 13 1023.1 1023.0 0.0
05/01:30pm 21.4 19.6 16.1 72 3.2 N 20 24 11 13 1023.3 1023.2 0.0
05/01:00pm 21.1 19.3 15.6 71 3.3 N 19 24 10 13 1023.5 1023.4 0.0
05/12:30pm 21.5 20.0 16.2 72 3.2 N 19 24 10 13 1023.7 1023.6 0.0
05/12:00pm 21.5 20.5 16.5 73 3.0 NNE 17 22 9 12 1024.1 1024.0 0.0
05/11:30am 21.2 19.7 16.4 74 2.9 N 19 26 10 14 1024.2 1024.1 0.0
05/11:00am 21.2 19.8 16.6 75 2.8 NE 19 24 10 13 1024.1 1024.0 0.0
05/10:30am 20.5 18.7 15.9 75 2.7 NE 20 24 11 13 1023.8 1023.7 0.0
05/10:00am 20.6 19.1 16.4 77 2.5 NE 19 24 10 13 1023.8 1023.7 0.0
05/09:30am 19.7 17.7 15.4 76 2.5 NE 20 24 11 13 1023.6 1023.5 0.0
05/09:29am 19.8 17.9 15.7 77 2.4 NE 20 24 11 13 1023.6 1023.5 0.0
05/09:17am 19.5 17.6 15.8 79 2.2 NE 20 26 11 14 1023.6 1023.5 0.0
05/09:00am 19.4 17.8 16.1 81 2.0 NE 19 24 10 13 1023.5 1023.4 0.8
05/08:30am 18.7 17.9 16.1 85 1.5 ENE 15 22 8 12 1023.2 1023.1 0.8
05/08:07am 18.1 17.3 15.0 82 1.8 ENE 13 17 7 9 1023.1 1023.0 0.0
05/08:03am 18.4 17.3 15.3 82 1.8 ENE 15 17 8 9 1023.0 1022.9 0.0
05/08:00am 18.5 17.4 15.2 81 1.9 ENE 15 17 8 9 1023.0 1022.9 0.0
05/07:45am 18.3 17.5 15.0 81 1.9 E 13 17 7 9 1022.9 1022.8 0.0
05/07:30am 18.1 17.3 15.2 83 1.7 E 13 15 7 8 1022.8 1022.7 0.0
05/07:00am 17.7 16.9 15.1 85 1.5 ENE 13 20 7 11 1022.4 1022.3 0.0
05/06:51am 18.1 16.8 15.7 86 1.4 ENE 17 20 9 11 1022.2 1022.1 0.0
05/06:30am 17.8 16.4 15.6 87 1.3 ENE 17 20 9 11 1022.0 1021.9 0.0
05/06:09am 17.5 15.9 15.0 85 1.5 ENE 17 20 9 11 1021.8 1021.7 0.0
05/06:05am 17.5 16.7 15.0 85 1.5 ENE 13 20 7 11 1021.8 1021.7 0.0
05/06:00am 17.4 16.9 14.9 85 1.4 E 11 15 6 8 1021.8 1021.7 0.0
05/05:51am 17.5 16.6 14.8 84 1.6 ENE 13 19 7 10 1021.7 1021.6 0.0
05/05:30am 17.5 17.0 14.8 84 1.6 E 11 15 6 8 1021.6 1021.5 0.0
05/05:29am 17.6 17.1 15.0 85 1.5 E 11 15 6 8 1021.6 1021.5 0.0
05/05:18am 17.4 16.9 14.9 85 1.4 ESE 11 13 6 7 1021.6 1021.5 0.0
05/05:00am 17.4 16.8 14.7 84 1.6 E 11 13 6 7 1021.5 1021.4 0.0

Other Formats:

Comma delimited format used in spreadsheet applications
http://www.bom.gov.au/fwo/IDT60801/IDT60801.95960.axf

JavaScript Object Notation format (JSON) in row-major order
http://www.bom.gov.au/fwo/IDT60801/IDT60801.95960.json